createdAt,value
2022-09-16T00:01:36.318Z,12.49
2022-09-16T00:04:03.262Z,12.64
2022-09-16T00:06:30.352Z,12.37
2022-09-16T00:09:00.979Z,12.50
2022-09-16T00:11:28.652Z,12.59
2022-09-16T00:13:55.089Z,12.52
2022-09-16T00:16:25.028Z,12.58
2022-09-16T00:18:56.156Z,12.57
2022-09-16T00:21:22.820Z,12.61
2022-09-16T00:23:49.311Z,12.56
2022-09-16T00:26:15.952Z,12.68
2022-09-16T00:28:42.738Z,12.59
2022-09-16T00:31:09.635Z,12.55
2022-09-16T00:33:36.128Z,12.77
2022-09-16T00:36:16.229Z,12.83
2022-09-16T00:38:43.596Z,12.87
2022-09-16T00:41:16.936Z,12.68
2022-09-16T00:43:51.034Z,12.93
2022-09-16T00:46:23.100Z,12.90
2022-09-16T00:48:49.970Z,12.86
2022-09-16T00:51:17.210Z,12.73
2022-09-16T00:54:02.133Z,12.72
2022-09-16T00:56:34.112Z,12.69
2022-09-16T00:59:10.812Z,12.75
2022-09-16T01:01:38.962Z,12.83
2022-09-16T01:04:22.578Z,12.80
2022-09-16T01:06:49.553Z,12.78
2022-09-16T01:09:18.066Z,12.92
2022-09-16T01:11:44.462Z,12.74
2022-09-16T01:14:40.606Z,12.76
2022-09-16T01:17:34.150Z,12.95
2022-09-16T01:20:34.656Z,12.94
2022-09-16T01:23:29.608Z,12.94
2022-09-16T01:26:15.792Z,12.83
2022-09-16T01:29:24.137Z,12.88
2022-09-16T01:32:03.761Z,12.84
2022-09-16T01:34:40.165Z,12.80
2022-09-16T01:37:38.981Z,12.56
2022-09-16T01:40:43.128Z,12.81
2022-09-16T01:43:25.946Z,12.77
2022-09-16T01:46:15.519Z,12.76
2022-09-16T01:48:57.820Z,12.71
2022-09-16T01:51:24.112Z,12.66
2022-09-16T01:54:07.134Z,12.62
2022-09-16T01:56:55.795Z,12.53
2022-09-16T01:59:39.575Z,12.29
2022-09-16T02:02:17.549Z,12.52
2022-09-16T02:04:50.437Z,12.39
2022-09-16T02:07:21.030Z,12.36
2022-09-16T02:10:06.585Z,12.37
2022-09-16T02:12:37.224Z,12.44
2022-09-16T02:15:09.547Z,12.45
2022-09-16T02:17:44.932Z,12.29
2022-09-16T02:20:20.225Z,12.28
2022-09-16T02:22:51.669Z,12.32
2022-09-16T02:25:19.542Z,12.33
2022-09-16T02:27:49.246Z,12.20
2022-09-16T02:30:19.296Z,12.27
2022-09-16T02:32:50.298Z,12.13
2022-09-16T02:35:19.623Z,12.47
2022-09-16T02:37:51.038Z,12.27
2022-09-16T02:40:24.366Z,12.42
2022-09-16T02:42:51.805Z,12.45
2022-09-16T02:45:18.487Z,12.57
2022-09-16T02:48:23.430Z,12.61
2022-09-16T02:50:59.115Z,12.48
2022-09-16T02:53:43.581Z,12.30
2022-09-16T02:56:31.025Z,12.47
2022-09-16T02:58:57.984Z,12.35
2022-09-16T03:01:25.923Z,12.33
2022-09-16T03:03:55.765Z,12.57
2022-09-16T03:06:25.295Z,12.56
2022-09-16T03:08:54.124Z,12.22
2022-09-16T03:11:31.716Z,12.41
2022-09-16T03:14:27.940Z,12.41
2022-09-16T03:17:26.789Z,12.53
2022-09-16T03:20:12.067Z,12.46
2022-09-16T03:22:44.538Z,12.44
2022-09-16T03:25:29.779Z,12.44
2022-09-16T03:28:16.915Z,12.27
2022-09-16T03:31:12.900Z,12.38
2022-09-16T03:34:05.136Z,12.35
2022-09-16T03:36:36.502Z,12.16
2022-09-16T03:39:05.836Z,12.27
2022-09-16T03:41:34.073Z,12.15
2022-09-16T03:44:04.014Z,12.21
2022-09-16T03:46:31.043Z,12.34
2022-09-16T03:48:57.822Z,12.23
2022-09-16T03:51:25.981Z,12.15
2022-09-16T03:53:53.094Z,12.09
2022-09-16T03:56:20.272Z,12.28
2022-09-16T03:58:50.170Z,12.05
2022-09-16T04:01:16.862Z,12.27
2022-09-16T04:03:43.359Z,12.23
2022-09-16T04:06:09.976Z,12.06
2022-09-16T04:08:37.198Z,12.20
2022-09-16T04:11:08.034Z,12.31
2022-09-16T04:13:35.841Z,12.34
2022-09-16T04:16:04.427Z,12.33
2022-09-16T04:18:32.033Z,12.39
2022-09-16T04:20:59.984Z,12.35
2022-09-16T04:23:27.773Z,12.26
2022-09-16T04:25:59.198Z,12.28
2022-09-16T04:28:26.024Z,12.27
2022-09-16T04:30:52.540Z,11.91
2022-09-16T04:33:19.208Z,12.17
2022-09-16T04:35:45.861Z,12.05
2022-09-16T04:38:12.236Z,12.18
2022-09-16T04:40:41.289Z,12.15
2022-09-16T04:43:07.720Z,11.98
2022-09-16T04:45:34.355Z,12.14
2022-09-16T04:48:00.860Z,12.14
2022-09-16T04:50:27.664Z,11.78
2022-09-16T04:52:54.224Z,11.91
2022-09-16T04:55:23.164Z,12.15
2022-09-16T04:57:50.286Z,12.11
2022-09-16T05:00:16.851Z,12.11
2022-09-16T05:02:46.811Z,12.18
2022-09-16T05:05:13.484Z,12.20
2022-09-16T05:07:39.858Z,12.20
2022-09-16T05:10:06.861Z,12.19
2022-09-16T05:12:33.251Z,12.24
2022-09-16T05:14:59.619Z,11.94
2022-09-16T05:17:49.325Z,12.07
2022-09-16T05:20:12.787Z,12.08
2022-09-16T05:22:39.213Z,12.13
2022-09-16T05:25:06.340Z,12.05
2022-09-16T05:27:33.204Z,12.05
2022-09-16T05:29:59.598Z,12.04
2022-09-16T05:32:26.071Z,12.03
2022-09-16T05:34:52.513Z,12.24
2022-09-16T05:37:18.883Z,12.23
2022-09-16T05:39:45.320Z,12.16
2022-09-16T05:42:11.695Z,12.21
2022-09-16T05:44:38.092Z,12.31
2022-09-16T05:47:04.632Z,12.24
2022-09-16T05:49:31.109Z,12.33
2022-09-16T05:51:57.486Z,12.26
2022-09-16T05:54:25.210Z,12.31
2022-09-16T05:56:51.891Z,12.18
2022-09-16T05:59:18.481Z,12.25
2022-09-16T06:01:45.304Z,12.30
2022-09-16T06:04:13.376Z,12.30
2022-09-16T06:06:42.874Z,12.21
2022-09-16T06:09:11.956Z,12.13
2022-09-16T06:11:41.271Z,12.26
2022-09-16T06:14:08.354Z,12.16
2022-09-16T06:16:36.086Z,12.29
2022-09-16T06:19:05.346Z,12.25
2022-09-16T06:21:31.802Z,12.07
2022-09-16T06:23:58.387Z,12.37
2022-09-16T06:26:26.469Z,12.41
2022-09-16T06:28:53.419Z,12.30
2022-09-16T06:31:26.253Z,12.55
2022-09-16T06:33:54.020Z,12.57
2022-09-16T06:36:23.253Z,12.62
2022-09-16T06:38:51.206Z,12.63
2022-09-16T06:41:19.355Z,12.54
2022-09-16T06:43:46.625Z,12.56
2022-09-16T06:46:18.758Z,12.56
2022-09-16T06:48:51.044Z,12.64
2022-09-16T06:51:23.078Z,12.66
2022-09-16T06:53:51.168Z,12.74
2022-09-16T06:56:22.709Z,12.76
2022-09-16T06:58:58.736Z,12.93
2022-09-16T07:01:29.178Z,11.66
2022-09-16T07:04:04.657Z,13.06
2022-09-16T07:06:57.755Z,12.18
2022-09-16T07:09:19.869Z,12.18
2022-09-16T07:11:51.070Z,12.43
2022-09-16T07:14:17.857Z,12.93
2022-09-16T07:16:47.541Z,13.12
2022-09-16T07:19:14.685Z,12.32
2022-09-16T07:21:44.387Z,12.23
2022-09-16T07:24:14.093Z,12.61
2022-09-16T07:26:46.687Z,12.42
2022-09-16T07:29:20.653Z,13.63
2022-09-16T07:31:50.861Z,13.65
2022-09-16T07:34:20.251Z,13.76
2022-09-16T07:36:57.307Z,13.77
2022-09-16T07:39:28.003Z,12.56
2022-09-16T07:41:55.553Z,13.35
2022-09-16T07:44:28.341Z,13.25
2022-09-16T07:46:56.008Z,12.50
2022-09-16T07:49:23.444Z,12.59
2022-09-16T07:51:53.643Z,13.27
2022-09-16T07:54:21.774Z,14.41
2022-09-16T07:56:53.540Z,13.78
2022-09-16T07:59:23.675Z,14.74
2022-09-16T08:01:56.143Z,14.89
2022-09-16T08:04:23.261Z,13.65
2022-09-16T08:06:53.464Z,13.98
2022-09-16T08:09:41.310Z,15.11
2022-09-16T08:12:18.344Z,13.66
2022-09-16T08:14:56.917Z,14.18
2022-09-16T08:17:28.668Z,14.56
2022-09-16T08:20:02.369Z,14.49
2022-09-16T08:22:29.482Z,15.05
2022-09-16T08:24:56.655Z,13.77
2022-09-16T08:27:30.028Z,14.80
2022-09-16T08:30:00.049Z,14.05
2022-09-16T08:32:27.170Z,14.15
2022-09-16T08:35:02.353Z,14.33
2022-09-16T08:37:33.024Z,14.16
2022-09-16T08:40:06.995Z,15.66
2022-09-16T08:43:06.560Z,15.10
2022-09-16T08:46:10.927Z,15.51
2022-09-16T08:49:03.878Z,15.90
2022-09-16T08:51:39.301Z,14.49
2022-09-16T08:54:34.803Z,16.03
2022-09-16T08:57:06.932Z,14.57
2022-09-16T08:59:44.238Z,15.50
2022-09-16T09:02:36.247Z,14.99
2022-09-16T09:05:16.633Z,15.09
2022-09-16T09:07:58.804Z,16.25
2022-09-16T09:10:48.349Z,15.10
2022-09-16T09:13:43.429Z,16.69
2022-09-16T09:16:35.736Z,16.86
2022-09-16T09:19:14.646Z,17.01
2022-09-16T09:21:53.705Z,17.14
2022-09-16T09:24:49.542Z,16.40
2022-09-16T09:27:30.412Z,17.16
2022-09-16T09:30:24.312Z,15.96
2022-09-16T09:33:44.897Z,17.02
2022-09-16T09:36:37.293Z,17.05
2022-09-16T09:39:31.946Z,15.64
2022-09-16T09:42:16.234Z,17.05
2022-09-16T09:45:11.545Z,17.63
2022-09-16T09:48:06.012Z,17.04
2022-09-16T09:50:56.884Z,18.23
2022-09-16T09:53:47.809Z,17.88
2022-09-16T09:56:34.046Z,18.64
2022-09-16T09:59:11.530Z,18.28
2022-09-16T10:01:38.502Z,17.79
2022-09-16T10:04:18.085Z,18.81
2022-09-16T10:06:46.283Z,18.76
2022-09-16T10:09:31.870Z,19.53
2022-09-16T10:12:06.362Z,19.10
2022-09-16T10:14:49.784Z,18.92
2022-09-16T10:17:23.383Z,18.94
2022-09-16T10:20:07.225Z,18.98
2022-09-16T10:22:38.611Z,19.20
2022-09-16T10:25:27.741Z,18.49
2022-09-16T10:28:02.543Z,19.43
2022-09-16T10:30:32.967Z,19.24
2022-09-16T10:33:18.340Z,19.11
2022-09-16T10:35:56.964Z,20.18
2022-09-16T10:38:35.775Z,19.60
2022-09-16T10:41:20.175Z,20.30
2022-09-16T10:44:06.090Z,20.29
2022-09-16T10:46:44.433Z,19.84
2022-09-16T10:49:38.066Z,19.50
2022-09-16T10:52:19.377Z,19.10
2022-09-16T10:54:52.821Z,19.19
2022-09-16T10:57:33.483Z,20.40
2022-09-16T11:00:20.557Z,20.62
2022-09-16T11:03:33.539Z,20.32
2022-09-16T11:06:38.227Z,20.85
2022-09-16T11:09:33.268Z,20.49
2022-09-16T11:12:27.570Z,19.79
2022-09-16T11:15:08.225Z,19.52
2022-09-16T11:17:49.812Z,19.63
2022-09-16T11:20:52.214Z,17.72
2022-09-16T11:23:32.480Z,18.06
2022-09-16T11:26:09.600Z,16.30
2022-09-16T11:29:11.378Z,16.93
2022-09-16T11:32:09.720Z,16.44
2022-09-16T11:34:57.147Z,15.00
2022-09-16T11:37:35.400Z,15.84
2022-09-16T11:40:21.405Z,15.69
2022-09-16T11:43:21.855Z,14.52
2022-09-16T11:46:26.762Z,15.62
2022-09-16T11:49:47.800Z,15.08
2022-09-16T11:52:34.830Z,16.01
2022-09-16T11:56:22.091Z,16.39
2022-09-16T11:59:35.830Z,16.80
2022-09-16T12:02:28.724Z,16.37
2022-09-16T12:05:03.445Z,17.39
2022-09-16T12:08:08.786Z,16.44
2022-09-16T12:10:58.440Z,17.61
2022-09-16T12:14:06.085Z,17.62
2022-09-16T12:16:51.947Z,18.03
2022-09-16T12:19:30.294Z,16.60
2022-09-16T12:22:03.084Z,16.63
2022-09-16T12:24:29.976Z,16.97
2022-09-16T12:27:15.466Z,15.94
2022-09-16T12:29:52.380Z,16.39
2022-09-16T12:32:44.086Z,15.46
2022-09-16T12:35:16.960Z,16.13
2022-09-16T12:37:49.736Z,16.11
2022-09-16T12:40:47.680Z,15.38
2022-09-16T12:43:47.686Z,16.31
2022-09-16T12:46:35.472Z,16.48
2022-09-16T12:49:24.328Z,16.57
2022-09-16T12:52:19.932Z,15.99
2022-09-16T12:55:17.163Z,16.28
2022-09-16T12:58:10.178Z,16.14
2022-09-16T13:00:50.323Z,16.00
2022-09-16T13:03:22.239Z,14.83
2022-09-16T13:05:53.159Z,14.77
2022-09-16T13:08:34.334Z,14.80
2022-09-16T13:14:05.628Z,15.45
2022-09-16T13:16:37.460Z,14.45
2022-09-16T13:19:29.027Z,15.70
2022-09-16T13:22:00.768Z,14.27
2022-09-16T13:24:57.401Z,14.36
2022-09-16T13:27:39.486Z,14.35
2022-09-16T13:30:09.266Z,15.43
2022-09-16T13:32:50.019Z,14.54
2022-09-16T13:35:20.030Z,15.17
2022-09-16T13:37:53.629Z,14.65
2022-09-16T13:40:30.435Z,13.76
2022-09-16T13:43:18.609Z,14.00
2022-09-16T13:45:50.422Z,13.40
2022-09-16T13:48:21.572Z,13.27
2022-09-16T13:50:53.446Z,13.32
2022-09-16T13:53:31.894Z,14.19
2022-09-16T13:56:23.115Z,13.87
2022-09-16T13:59:21.754Z,13.89
2022-09-16T14:02:23.677Z,13.77
2022-09-16T14:05:47.207Z,13.78
2022-09-16T14:08:39.695Z,13.66
2022-09-16T14:11:18.322Z,13.53
2022-09-16T14:13:48.234Z,13.36
2022-09-16T14:16:20.553Z,13.41
2022-09-16T14:18:56.597Z,13.43
2022-09-16T14:21:24.544Z,13.24
2022-09-16T14:23:51.373Z,13.15
2022-09-16T14:26:23.272Z,13.26
2022-09-16T14:28:50.742Z,13.17
2022-09-16T14:31:22.704Z,13.14
2022-09-16T14:33:57.207Z,13.08
2022-09-16T14:36:30.023Z,12.99
2022-09-16T14:39:09.532Z,12.98
2022-09-16T14:41:40.485Z,12.88
2022-09-16T14:44:22.706Z,13.01
2022-09-16T14:47:07.379Z,12.99
2022-09-16T14:49:39.710Z,12.92
2022-09-16T14:52:19.643Z,13.03
2022-09-16T14:54:46.132Z,12.84
2022-09-16T14:57:20.667Z,13.10
2022-09-16T14:59:47.365Z,13.12
2022-09-16T15:02:19.563Z,13.14
2022-09-16T15:04:53.858Z,13.17
2022-09-16T15:07:29.644Z,13.03
2022-09-16T15:10:09.278Z,13.02
2022-09-16T15:12:38.785Z,13.25
2022-09-16T15:15:15.645Z,13.24
2022-09-16T15:17:42.120Z,13.28
2022-09-16T15:20:25.408Z,13.14
2022-09-16T15:22:52.807Z,13.36
2022-09-16T15:25:29.118Z,13.24
2022-09-16T15:28:16.176Z,13.35
2022-09-16T15:30:55.475Z,13.40
2022-09-16T15:33:35.950Z,13.49
2022-09-16T15:36:04.323Z,13.65
2022-09-16T15:38:33.482Z,13.78
2022-09-16T15:41:20.305Z,13.91
2022-09-16T15:43:47.073Z,13.92
2022-09-16T15:46:18.190Z,13.82
2022-09-16T15:49:11.466Z,14.05
2022-09-16T15:51:49.297Z,14.03
2022-09-16T15:54:44.721Z,14.16
2022-09-16T15:57:31.063Z,14.04
2022-09-16T16:00:14.902Z,14.13
2022-09-16T16:03:01.825Z,14.23
2022-09-16T16:05:33.177Z,14.17
2022-09-16T16:08:06.134Z,14.25
2022-09-16T16:10:36.353Z,14.23
2022-09-16T16:13:06.696Z,14.35
2022-09-16T16:15:38.815Z,13.83
2022-09-16T16:18:10.579Z,14.29
2022-09-16T16:20:38.187Z,14.37
2022-09-16T16:23:04.690Z,14.30
2022-09-16T16:25:32.086Z,13.93
2022-09-16T16:27:58.448Z,14.59
2022-09-16T16:30:24.823Z,14.43
2022-09-16T16:32:51.301Z,14.43
2022-09-16T16:35:17.821Z,14.48
2022-09-16T16:37:47.241Z,14.59
2022-09-16T16:40:15.208Z,14.60
2022-09-16T16:42:43.680Z,14.63
2022-09-16T16:45:12.851Z,14.71
2022-09-16T16:47:40.042Z,14.85
2022-09-16T16:50:06.842Z,14.93
2022-09-16T16:52:33.248Z,14.80
2022-09-16T16:55:00.635Z,15.05
2022-09-16T16:57:27.103Z,14.92
2022-09-16T16:59:53.457Z,15.04
2022-09-16T17:02:20.303Z,14.94
2022-09-16T17:04:46.733Z,15.18
2022-09-16T17:07:28.463Z,15.20
2022-09-16T17:09:57.250Z,15.21
2022-09-16T17:12:23.829Z,15.08
2022-09-16T17:14:50.495Z,15.24
2022-09-16T17:17:18.860Z,15.23
2022-09-16T17:19:45.287Z,14.91
2022-09-16T17:22:12.103Z,15.04
2022-09-16T17:24:38.590Z,15.04
2022-09-16T17:27:05.327Z,15.15
2022-09-16T17:29:32.067Z,15.21
2022-09-16T17:32:00.632Z,15.12
2022-09-16T17:34:27.093Z,15.08
2022-09-16T17:36:54.458Z,15.07
2022-09-16T17:39:22.619Z,15.09
2022-09-16T17:41:50.135Z,15.12
2022-09-16T17:44:18.107Z,15.12
2022-09-16T17:46:45.165Z,15.03
2022-09-16T17:49:18.147Z,15.14
2022-09-16T17:51:44.750Z,14.99
2022-09-16T17:54:11.677Z,15.06
2022-09-16T17:56:38.091Z,15.09
2022-09-16T17:59:04.652Z,15.06
2022-09-16T18:01:31.909Z,14.97
2022-09-16T18:03:58.460Z,15.06
2022-09-16T18:06:28.350Z,14.95
2022-09-16T18:08:55.381Z,14.99
2022-09-16T18:11:22.513Z,14.94
2022-09-16T18:13:54.311Z,15.04
2022-09-16T18:16:21.693Z,14.82
2022-09-16T18:18:52.057Z,14.82
2022-09-16T18:21:19.755Z,14.91
2022-09-16T18:23:50.515Z,14.92
2022-09-16T18:26:18.678Z,14.88
2022-09-16T18:29:08.515Z,14.75
2022-09-16T18:31:34.453Z,14.82
2022-09-16T18:34:00.863Z,14.77
2022-09-16T18:36:29.872Z,14.71
2022-09-16T18:38:57.626Z,14.71
2022-09-16T18:41:30.481Z,14.65
2022-09-16T18:44:01.969Z,14.68
2022-09-16T18:46:30.638Z,14.68
2022-09-16T18:48:58.273Z,14.67
2022-09-16T18:51:27.451Z,14.68
2022-09-16T18:53:57.699Z,14.69
2022-09-16T18:56:25.566Z,14.65
2022-09-16T18:59:17.229Z,14.68
2022-09-16T19:01:40.349Z,14.64
2022-09-16T19:04:10.139Z,14.61
2022-09-16T19:06:39.166Z,14.63
2022-09-16T19:09:08.143Z,14.58
2022-09-16T19:11:36.216Z,14.55
2022-09-16T19:14:03.469Z,14.51
2022-09-16T19:16:32.693Z,14.37
2022-09-16T19:19:00.811Z,14.42
2022-09-16T19:21:28.027Z,14.35
2022-09-16T19:24:00.104Z,14.25
2022-09-16T19:26:31.886Z,14.29
2022-09-16T19:29:01.670Z,14.25
2022-09-16T19:31:29.568Z,14.11
2022-09-16T19:33:56.280Z,14.17
2022-09-16T19:36:25.782Z,14.15
2022-09-16T19:38:53.429Z,14.09
2022-09-16T19:41:23.200Z,14.05
2022-09-16T19:43:58.198Z,13.99
2022-09-16T19:46:25.447Z,13.99
2022-09-16T19:48:52.240Z,14.04
2022-09-16T19:51:22.629Z,14.04
2022-09-16T19:53:52.895Z,13.85
2022-09-16T19:56:23.469Z,14.13
2022-09-16T19:58:53.852Z,14.01
2022-09-16T20:01:24.326Z,13.98
2022-09-16T20:03:51.999Z,13.97
2022-09-16T20:06:20.943Z,13.80
2022-09-16T20:08:52.496Z,13.95
2022-09-16T20:11:20.935Z,13.95
2022-09-16T20:13:52.924Z,13.96
2022-09-16T20:16:20.954Z,13.94
2022-09-16T20:18:47.670Z,13.95
2022-09-16T20:21:17.028Z,13.93
2022-09-16T20:23:45.202Z,13.97
2022-09-16T20:26:14.927Z,13.98
2022-09-16T20:28:42.899Z,13.96
2022-09-16T20:31:13.392Z,13.98
2022-09-16T20:33:40.998Z,13.95
2022-09-16T20:36:10.800Z,14.02
2022-09-16T20:38:38.756Z,14.05
2022-09-16T20:41:07.001Z,14.00
2022-09-16T20:43:34.703Z,13.99
2022-09-16T20:46:11.481Z,13.99
2022-09-16T20:48:39.160Z,13.94
2022-09-16T20:51:11.072Z,13.90
2022-09-16T20:53:39.226Z,13.87
2022-09-16T20:56:08.141Z,13.67
2022-09-16T20:58:34.849Z,13.77
2022-09-16T21:01:24.641Z,13.74
2022-09-16T21:03:53.236Z,13.75
2022-09-16T21:06:19.939Z,13.70
2022-09-16T21:08:46.710Z,13.56
2022-09-16T21:11:15.731Z,13.65
2022-09-16T21:13:44.362Z,13.54
2022-09-16T21:16:12.941Z,13.59
2022-09-16T21:18:40.183Z,13.57
2022-09-16T21:21:11.917Z,13.54
2022-09-16T21:23:38.554Z,13.49
2022-09-16T21:26:12.978Z,13.51
2022-09-16T21:28:40.032Z,13.41
2022-09-16T21:31:12.062Z,13.49
2022-09-16T21:33:39.580Z,13.43
2022-09-16T21:36:09.165Z,13.44
2022-09-16T21:38:36.069Z,13.42
2022-09-16T21:41:05.804Z,13.42
2022-09-16T21:43:37.927Z,13.43
2022-09-16T21:46:04.868Z,13.41
2022-09-16T21:48:33.367Z,13.41
2022-09-16T21:51:05.609Z,13.42
2022-09-16T21:53:33.373Z,13.33
2022-09-16T21:56:05.493Z,13.41
2022-09-16T21:58:32.529Z,13.20
2022-09-16T22:01:06.171Z,13.42
2022-09-16T22:03:32.604Z,13.42
2022-09-16T22:05:59.119Z,13.43
2022-09-16T22:08:25.580Z,13.41
2022-09-16T22:10:52.083Z,13.41
2022-09-16T22:13:18.706Z,13.45
2022-09-16T22:15:51.659Z,13.42
2022-09-16T22:18:18.155Z,13.51
2022-09-16T22:20:44.537Z,13.55
2022-09-16T22:23:10.954Z,13.49
2022-09-16T22:25:37.413Z,13.58
2022-09-16T22:28:04.490Z,13.69
2022-09-16T22:30:33.204Z,13.61
2022-09-16T22:33:00.648Z,13.75
2022-09-16T22:35:27.383Z,13.83
2022-09-16T22:37:53.835Z,13.87
2022-09-16T22:40:20.769Z,13.90
2022-09-16T22:42:47.474Z,13.86
2022-09-16T22:45:13.916Z,13.98
2022-09-16T22:47:40.342Z,14.02
2022-09-16T22:50:07.115Z,14.03
2022-09-16T22:52:33.507Z,14.05
2022-09-16T22:54:59.893Z,14.07
2022-09-16T22:57:26.445Z,14.15
2022-09-16T22:59:52.844Z,14.18
2022-09-16T23:02:19.394Z,14.01
2022-09-16T23:04:45.810Z,14.07
2022-09-16T23:07:12.404Z,14.12
2022-09-16T23:09:38.783Z,14.24
2022-09-16T23:12:05.462Z,14.13
2022-09-16T23:14:31.838Z,14.30
2022-09-16T23:16:58.680Z,14.31
2022-09-16T23:19:25.061Z,14.32
2022-09-16T23:21:51.517Z,14.25
2022-09-16T23:24:20.614Z,14.25
2022-09-16T23:26:48.062Z,14.33
2022-09-16T23:29:15.391Z,14.32
2022-09-16T23:31:43.567Z,14.26
2022-09-16T23:34:13.049Z,14.31
2022-09-16T23:36:39.630Z,14.25
2022-09-16T23:39:07.133Z,14.21
2022-09-16T23:41:34.945Z,14.28
2022-09-16T23:44:01.676Z,14.17
2022-09-16T23:46:29.272Z,14.27
2022-09-16T23:48:55.937Z,14.31
2022-09-16T23:51:28.037Z,14.29
2022-09-16T23:53:56.917Z,14.30
2022-09-16T23:56:23.581Z,14.19
2022-09-16T23:58:51.125Z,14.29
